»·PEaware :: N850SN CJY3-CYYC

N850SN :: CJY3-CYYC

FLIGHT INFORMATION

Flight Status: Arrived
Operator: Privately registered:
United States
More flights under this callsign
Pilot: Lester F. (25731)
Aircraft: SOCATA TBM-850
(TBM8)
More flights by this aircraft type
Origin: CJY3 Tisdale
Canada
Destination: CYYC Calgary Intl
Canada
More flights between these airports :: More routes between these airports
Route: DIRECT
File this flight plan on PilotEdge
Remarks:
Altitude:
(Current/Filed)
16,500ft
Speed:
(Current/Filed)
270kts
Departed: 19-Aug-20 05:17 AM
Arrived: 19-Aug-20 07:00 AM
Distance/Time
Traveled:
381nm/1:43
Distance/Time
To Go:
Arrived

Flight Plot

Page will automatically refresh every two minutes.

Flight plan parsing failed; only flown route is shown


Map Options




Map Legend


Flown Route
Filed Route
Departure Airport
Arrival Airport
Navaid (VOR, NDB)
Fix

Horizontal Profiles

Position Reports

Time Latitude Longitude Heading Altitude Ground
Speed
19-Aug-20 05:08 52.839833 -104.066265 185 1529ft 0kts
19-Aug-20 05:09 52.839833 -104.066265 185 1529ft 0kts
19-Aug-20 05:10 52.839971 -104.066252 180 1529ft 0kts
19-Aug-20 05:11 52.839970 -104.066252 180 1529ft 0kts
19-Aug-20 05:12 52.839930 -104.066452 288 1529ft 0kts
19-Aug-20 05:13 52.839265 -104.069608 324 1529ft 9kts
19-Aug-20 05:14 52.839934 -104.070313 145 1529ft 0kts
19-Aug-20 05:15 52.839902 -104.070277 145 1529ft 7kts
19-Aug-20 05:16 52.821582 -104.053524 194 2150ft 112kts
19-Aug-20 05:17 52.818639 -104.107298 280 3847ft 126kts
19-Aug-20 05:18 52.823332 -104.170103 267 5509ft 147kts
19-Aug-20 05:19 52.817302 -104.239116 258 7326ft 155kts
19-Aug-20 05:20 52.808300 -104.311097 257 9140ft 163kts
19-Aug-20 05:21 52.798632 -104.385525 257 10943ft 168kts
19-Aug-20 05:22 52.788595 -104.462059 257 12747ft 172kts
19-Aug-20 05:23 52.778299 -104.540079 257 14550ft 175kts
19-Aug-20 05:24 52.767763 -104.619446 257 16293ft 182kts
19-Aug-20 05:25 52.754771 -104.716245 257 16506ft 244kts
19-Aug-20 05:26 52.739046 -104.832192 257 16489ft 267kts
19-Aug-20 05:27 52.722494 -104.953370 257 16495ft 273kts
19-Aug-20 05:28 52.705609 -105.076150 257 16501ft 275kts
19-Aug-20 05:29 52.688584 -105.198974 257 16499ft 275kts
19-Aug-20 05:30 52.671290 -105.322741 257 16476ft 276kts
19-Aug-20 05:31 52.653943 -105.445951 256 16470ft 276kts
19-Aug-20 05:32 52.636505 -105.569069 256 16463ft 276kts
19-Aug-20 05:33 52.618849 -105.692461 256 16457ft 276kts
19-Aug-20 05:34 52.601097 -105.815443 256 16454ft 276kts
19-Aug-20 05:36 52.583254 -105.938244 256 16461ft 275kts
19-Aug-20 05:37 52.565389 -106.060237 256 16497ft 275kts
19-Aug-20 05:38 52.547613 -106.181012 256 16481ft 271kts
19-Aug-20 05:39 52.529709 -106.301627 256 16477ft 271kts
19-Aug-20 05:40 52.511682 -106.421931 256 16473ft 271kts
19-Aug-20 05:41 52.493531 -106.542272 256 16471ft 271kts
19-Aug-20 05:42 52.475343 -106.661953 255 16497ft 270kts
19-Aug-20 05:43 52.451297 -106.778265 242 16498ft 271kts
19-Aug-20 05:44 52.434198 -106.898148 259 16497ft 271kts
19-Aug-20 05:45 52.418781 -107.019296 256 16498ft 271kts
19-Aug-20 05:46 52.400969 -107.139544 255 16499ft 271kts
19-Aug-20 05:47 52.382457 -107.259459 255 16499ft 271kts
19-Aug-20 05:48 52.363449 -107.379041 255 16499ft 271kts
19-Aug-20 05:49 52.344150 -107.498564 255 16502ft 272kts
19-Aug-20 05:50 52.325010 -107.618349 255 16502ft 272kts
19-Aug-20 05:51 52.305620 -107.737949 255 16501ft 272kts
19-Aug-20 05:52 52.286124 -107.857278 255 16529ft 271kts
19-Aug-20 05:53 52.266581 -107.976073 254 16537ft 272kts
19-Aug-20 05:54 52.246728 -108.095862 254 16535ft 272kts
19-Aug-20 05:54 52.230171 -108.195130 254 16540ft 272kts
19-Aug-20 05:55 52.210226 -108.314034 254 16541ft 272kts
19-Aug-20 05:57 52.186762 -108.452907 254 16560ft 272kts
19-Aug-20 05:57 52.169909 -108.551977 254 16555ft 272kts
19-Aug-20 05:58 52.149545 -108.670886 254 16554ft 272kts
19-Aug-20 05:59 52.129047 -108.789648 254 16551ft 272kts
19-Aug-20 06:00 52.108511 -108.908122 254 16551ft 272kts
19-Aug-20 06:01 52.087845 -109.026739 254 16550ft 272kts
19-Aug-20 06:02 52.067093 -109.145090 253 16553ft 272kts
19-Aug-20 06:03 52.046000 -109.263447 253 16507ft 273kts
19-Aug-20 06:04 52.024816 -109.382410 253 16511ft 272kts
19-Aug-20 06:05 52.003742 -109.500441 253 16520ft 272kts
19-Aug-20 06:06 51.982416 -109.618384 253 16522ft 273kts
19-Aug-20 06:07 51.960941 -109.736474 253 16532ft 273kts
19-Aug-20 06:08 51.939351 -109.854530 253 16539ft 273kts
19-Aug-20 06:09 51.917653 -109.972423 253 16549ft 273kts
19-Aug-20 06:10 51.895759 -110.090640 253 16552ft 273kts
19-Aug-20 06:11 51.873798 -110.208501 253 16561ft 273kts
19-Aug-20 06:12 51.851735 -110.326178 253 16560ft 273kts
19-Aug-20 06:13 51.829501 -110.444039 253 16561ft 273kts
19-Aug-20 06:14 51.807193 -110.561585 252 16561ft 273kts
19-Aug-20 06:15 51.784741 -110.679168 252 16561ft 273kts
19-Aug-20 06:16 51.762137 -110.796795 252 16561ft 274kts
19-Aug-20 06:17 51.739449 -110.914135 252 16561ft 274kts
19-Aug-20 06:18 51.716658 -111.031288 252 16561ft 274kts
19-Aug-20 06:19 51.693742 -111.148391 252 16561ft 274kts
19-Aug-20 06:20 51.670637 -111.265766 252 16561ft 274kts
19-Aug-20 06:21 51.647491 -111.382671 252 16561ft 274kts
19-Aug-20 06:22 51.624572 -111.497745 252 16561ft 274kts
19-Aug-20 06:23 51.600908 -111.615972 252 16561ft 270kts
19-Aug-20 06:24 51.577306 -111.733097 251 15995ft 282kts
19-Aug-20 06:25 51.552600 -111.853303 251 15195ft 278kts
19-Aug-20 06:26 51.529439 -111.968229 252 14392ft 265kts
19-Aug-20 06:27 51.506985 -112.079997 252 13590ft 260kts
19-Aug-20 06:28 51.484742 -112.189387 251 12792ft 257kts
19-Aug-20 06:29 51.462419 -112.298076 251 11991ft 255kts
19-Aug-20 06:30 51.440155 -112.405684 251 11189ft 252kts
19-Aug-20 06:31 51.418031 -112.511981 251 10389ft 250kts
19-Aug-20 06:32 51.395972 -112.617403 251 9589ft 248kts
19-Aug-20 06:33 51.374020 -112.721766 251 8789ft 246kts
19-Aug-20 06:34 51.352162 -112.825174 251 7989ft 244kts
19-Aug-20 06:35 51.330326 -112.927973 251 7186ft 242kts
19-Aug-20 06:36 51.308788 -113.028987 251 6578ft 233kts
19-Aug-20 06:37 51.288780 -113.124391 251 6502ft 219kts
19-Aug-20 06:38 51.269349 -113.216399 251 6507ft 219kts
19-Aug-20 06:39 51.249392 -113.308630 250 6521ft 220kts
19-Aug-20 06:40 51.232613 -113.402516 253 6530ft 220kts
19-Aug-20 06:41 51.189611 -113.453464 177 6567ft 219kts
19-Aug-20 06:42 51.128482 -113.444543 174 6571ft 221kts
19-Aug-20 06:43 51.067083 -113.434771 173 6558ft 222kts
19-Aug-20 06:44 51.008070 -113.457804 203 6412ft 224kts
19-Aug-20 06:45 50.951183 -113.498410 204 5711ft 223kts
19-Aug-20 06:46 50.896240 -113.542438 219 5013ft 221kts
19-Aug-20 06:47 50.854027 -113.611640 249 4659ft 220kts
19-Aug-20 06:48 50.842794 -113.706523 262 4603ft 213kts
19-Aug-20 06:49 50.834359 -113.796780 262 4603ft 204kts
19-Aug-20 06:50 50.826276 -113.883213 262 4611ft 185kts
19-Aug-20 06:51 50.852118 -113.939428 320 4601ft 164kts
19-Aug-20 06:52 50.890713 -113.980817 326 4598ft 168kts
19-Aug-20 06:53 50.932134 -114.013377 341 4594ft 160kts
19-Aug-20 06:54 50.973135 -114.020637 354 4597ft 141kts
19-Aug-20 06:55 51.011318 -114.021137 355 4599ft 134kts
19-Aug-20 06:56 51.046735 -114.021298 359 4785ft 105kts
19-Aug-20 06:57 51.072970 -114.021293 353 4032ft 85kts
19-Aug-20 06:58 51.095584 -114.021368 353 3615ft 73kts
19-Aug-20 06:59 51.107288 -114.021080 75 3561ft 12kts
19-Aug-20 07:00 51.106429 -114.019557 135 3561ft 7kts
19-Aug-20 07:01 51.108032 -114.017810 359 3561ft 17kts
19-Aug-20 07:02 51.113928 -114.017789 1 3561ft 23kts
19-Aug-20 07:03 51.120947 -114.017781 357 3561ft 26kts
19-Aug-20 07:04 51.127832 -114.017763 359 3561ft 21kts
19-Aug-20 07:05 51.131397 -114.016790 1 3561ft 12kts
19-Aug-20 07:06 51.133238 -114.014035 77 3561ft 11kts
19-Aug-20 07:07 51.132739 -114.012172 181 3561ft 0kts
19-Aug-20 07:08 51.132739 -114.012172 181 3561ft 0kts

Navigation Log

Ident Type
Flight plan parsing failed, navigation log unavailable